createdAt,value
2022-09-12T00:00:23.588Z,39.53
2022-09-12T00:02:54.457Z,40.15
2022-09-12T00:05:22.550Z,30.50
2022-09-12T00:07:50.446Z,26.40
2022-09-12T00:10:19.435Z,37.10
2022-09-12T00:12:47.071Z,30.92
2022-09-12T00:15:16.141Z,37.58
2022-09-12T00:17:43.795Z,40.90
2022-09-12T00:20:12.374Z,35.20
2022-09-12T00:22:40.030Z,40.13
2022-09-12T00:25:08.831Z,25.35
2022-09-12T00:27:36.442Z,27.95
2022-09-12T00:30:04.604Z,29.15
2022-09-12T00:32:33.607Z,41.15
2022-09-12T00:35:02.781Z,34.83
2022-09-12T00:37:31.195Z,29.27
2022-09-12T00:39:58.845Z,38.03
2022-09-12T00:42:26.486Z,33.20
2022-09-12T00:44:54.452Z,48.47
2022-09-12T00:47:26.239Z,44.78
2022-09-12T00:50:00.949Z,53.03
2022-09-12T00:52:31.687Z,47.45
2022-09-12T00:55:03.819Z,45.05
2022-09-12T00:57:36.756Z,45.28
2022-09-12T01:00:13.660Z,53.63
2022-09-12T01:02:42.197Z,33.22
2022-09-12T01:05:12.091Z,47.40
2022-09-12T01:07:41.335Z,43.80
2022-09-12T01:10:10.692Z,42.00
2022-09-12T01:12:41.082Z,49.47
2022-09-12T01:15:10.081Z,40.10
2022-09-12T01:17:52.270Z,28.52
2022-09-12T01:20:47.246Z,32.45
2022-09-12T01:23:38.418Z,45.70
2022-09-12T01:26:24.363Z,58.22
2022-09-12T01:29:14.563Z,37.58
2022-09-12T01:31:52.441Z,39.80
2022-09-12T01:34:28.123Z,51.00
2022-09-12T01:37:04.544Z,43.08
2022-09-12T01:39:41.526Z,32.60
2022-09-12T01:42:14.684Z,40.50
2022-09-12T01:44:51.419Z,45.53
2022-09-12T01:47:25.538Z,67.78
2022-09-12T01:50:01.362Z,56.72
2022-09-12T01:52:32.896Z,63.03
2022-09-12T01:55:09.748Z,57.08
2022-09-12T01:57:42.095Z,60.95
2022-09-12T02:00:13.137Z,41.38
2022-09-12T02:02:48.511Z,32.88
2022-09-12T02:05:21.498Z,56.88
2022-09-12T02:07:52.909Z,45.92
2022-09-12T02:10:26.345Z,55.38
2022-09-12T02:12:59.645Z,60.17
2022-09-12T02:15:33.587Z,42.95
2022-09-12T02:18:06.870Z,39.85
2022-09-12T02:20:47.850Z,41.70
2022-09-12T02:23:20.499Z,49.50
2022-09-12T02:25:52.337Z,46.95
2022-09-12T02:28:24.346Z,36.97
2022-09-12T02:30:58.049Z,51.53
2022-09-12T02:33:31.498Z,53.78
2022-09-12T02:36:05.638Z,50.03
2022-09-12T02:38:41.544Z,33.08
2022-09-12T02:41:09.370Z,33.50
2022-09-12T02:43:37.788Z,36.97
2022-09-12T02:46:07.448Z,29.95
2022-09-12T02:48:41.827Z,58.70
2022-09-12T02:51:09.759Z,59.10
2022-09-12T02:53:38.616Z,48.15
2022-09-12T02:56:12.222Z,47.35
2022-09-12T02:58:40.107Z,51.85
2022-09-12T03:01:14.905Z,44.80
2022-09-12T03:04:01.369Z,38.67
2022-09-12T03:06:36.427Z,33.35
2022-09-12T03:09:13.582Z,45.42
2022-09-12T03:12:04.462Z,56.15
2022-09-12T03:14:46.793Z,46.30
2022-09-12T03:17:25.950Z,41.38
2022-09-12T03:20:02.258Z,37.63
2022-09-12T03:22:34.800Z,42.00
2022-09-12T03:27:37.733Z,55.87
2022-09-12T03:30:06.264Z,57.22
2022-09-12T03:32:45.147Z,54.67
2022-09-12T03:35:15.143Z,67.57
2022-09-12T03:37:42.863Z,60.70
2022-09-12T03:40:12.417Z,75.05
2022-09-12T03:42:40.228Z,49.97
2022-09-12T03:45:09.670Z,53.75
2022-09-12T03:47:37.497Z,64.75
2022-09-12T03:50:06.357Z,45.67
2022-09-12T03:52:35.571Z,45.38
2022-09-12T03:55:03.232Z,36.45
2022-09-12T03:57:30.878Z,33.55
2022-09-12T03:59:58.541Z,58.28
2022-09-12T04:02:26.202Z,37.13
2022-09-12T04:04:53.911Z,41.92
2022-09-12T04:07:21.632Z,33.53
2022-09-12T04:09:50.639Z,50.10
2022-09-12T04:12:18.278Z,46.95
2022-09-12T04:14:46.297Z,64.35
2022-09-12T04:17:15.178Z,42.67
2022-09-12T04:19:42.871Z,32.47
2022-09-12T04:22:10.475Z,46.72
2022-09-12T04:24:38.133Z,48.78
2022-09-12T04:27:07.929Z,38.05
2022-09-12T04:29:35.698Z,44.15
2022-09-12T04:32:04.771Z,40.38
2022-09-12T04:34:32.766Z,33.83
2022-09-12T04:37:00.428Z,34.40
2022-09-12T04:39:28.167Z,34.88
2022-09-12T04:41:55.838Z,45.92
2022-09-12T04:44:24.963Z,50.78
2022-09-12T04:46:52.752Z,68.20
2022-09-12T04:49:20.386Z,47.42
2022-09-12T04:51:48.310Z,40.30
2022-09-12T04:54:17.828Z,46.00
2022-09-12T04:56:47.361Z,34.22
2022-09-12T04:59:16.382Z,44.38
2022-09-12T05:01:45.430Z,34.67
2022-09-12T05:04:14.455Z,34.72
2022-09-12T05:06:43.586Z,36.17
2022-09-12T05:09:14.071Z,41.58
2022-09-12T05:14:34.087Z,35.72
2022-09-12T05:17:04.343Z,33.88
2022-09-12T05:19:32.932Z,35.97
2022-09-12T05:22:02.509Z,39.92
2022-09-12T05:24:30.219Z,48.95
2022-09-12T05:26:57.891Z,31.77
2022-09-12T05:29:25.664Z,41.65
2022-09-12T05:31:53.749Z,40.88
2022-09-12T05:34:23.457Z,46.15
2022-09-12T05:36:51.213Z,39.97
2022-09-12T05:39:18.993Z,37.63
2022-09-12T05:41:47.291Z,34.72
2022-09-12T05:44:15.707Z,43.30
2022-09-12T05:46:46.630Z,36.63
2022-09-12T05:49:14.832Z,53.67
2022-09-12T05:51:45.653Z,48.00
2022-09-12T05:54:19.364Z,46.95
2022-09-12T05:56:48.321Z,52.28
2022-09-12T05:59:18.308Z,36.17
2022-09-12T06:01:46.871Z,40.80
2022-09-12T06:04:14.590Z,43.40
2022-09-12T06:06:45.859Z,40.95
2022-09-12T06:09:15.027Z,38.13
2022-09-12T06:11:43.337Z,42.60
2022-09-12T06:14:12.560Z,43.08
2022-09-12T06:16:40.351Z,40.22
2022-09-12T06:19:13.827Z,45.10
2022-09-12T06:21:43.067Z,43.13
2022-09-12T06:24:10.914Z,44.35
2022-09-12T06:26:38.745Z,40.95
2022-09-12T06:29:06.498Z,41.83
2022-09-12T06:31:36.425Z,42.17
2022-09-12T06:34:06.402Z,38.00
2022-09-12T06:36:37.479Z,41.60
2022-09-12T06:39:08.725Z,36.92
2022-09-12T06:41:38.459Z,39.70
2022-09-12T06:44:12.142Z,40.95
2022-09-12T06:46:39.789Z,39.55
2022-09-12T06:49:08.116Z,36.78
2022-09-12T06:51:36.243Z,38.55
2022-09-12T06:54:05.300Z,37.38
2022-09-12T06:56:34.662Z,34.67
2022-09-12T06:59:02.328Z,37.78
2022-09-12T07:01:31.986Z,40.17
2022-09-12T07:04:01.070Z,35.78
2022-09-12T07:06:31.861Z,34.15
2022-09-12T07:09:00.945Z,33.00
2022-09-12T07:11:32.622Z,33.75
2022-09-12T07:14:03.126Z,22.93
2022-09-12T07:16:31.159Z,35.85
2022-09-12T07:19:00.416Z,33.63
2022-09-12T07:21:28.961Z,36.17
2022-09-12T07:23:57.840Z,35.33
2022-09-12T07:26:26.871Z,31.90
2022-09-12T07:29:07.969Z,36.80
2022-09-12T07:31:45.409Z,36.70
2022-09-12T07:34:13.879Z,37.35
2022-09-12T07:36:41.678Z,34.63
2022-09-12T07:39:09.612Z,40.17
2022-09-12T07:41:37.256Z,39.85
2022-09-12T07:44:06.645Z,34.75
2022-09-12T07:46:35.285Z,38.03
2022-09-12T07:49:04.431Z,35.67
2022-09-12T07:51:32.438Z,39.45
2022-09-12T07:54:00.672Z,37.53
2022-09-12T07:56:32.743Z,36.47
2022-09-12T07:59:02.506Z,35.67
2022-09-12T08:01:30.928Z,35.95
2022-09-12T08:04:00.000Z,37.80
2022-09-12T08:06:33.747Z,35.00
2022-09-12T08:09:01.912Z,36.17
2022-09-12T08:11:30.989Z,38.38
2022-09-12T08:13:59.983Z,38.25
2022-09-12T08:16:29.569Z,37.15
2022-09-12T08:18:57.250Z,38.35
2022-09-12T08:21:26.859Z,35.28
2022-09-12T08:23:57.389Z,34.33
2022-09-12T08:26:25.719Z,33.35
2022-09-12T08:28:54.005Z,31.02
2022-09-12T08:31:23.867Z,31.48
2022-09-12T08:33:52.266Z,31.38
2022-09-12T08:36:22.584Z,33.15
2022-09-12T08:38:59.260Z,27.52
2022-09-12T08:41:31.753Z,27.23
2022-09-12T08:44:31.562Z,23.80
2022-09-12T08:47:24.970Z,23.20
2022-09-12T08:50:00.341Z,19.50
2022-09-12T08:52:32.302Z,19.05
2022-09-12T08:55:01.295Z,16.10
2022-09-12T08:57:30.438Z,18.30
2022-09-12T08:59:58.344Z,19.60
2022-09-12T09:02:43.048Z,23.58
2022-09-12T09:05:20.818Z,22.20
2022-09-12T09:08:10.679Z,23.05
2022-09-12T09:10:48.015Z,21.65
2022-09-12T09:13:48.222Z,20.25
2022-09-12T09:16:23.866Z,22.50
2022-09-12T09:18:53.669Z,22.85
2022-09-12T09:21:30.141Z,24.08
2022-09-12T09:24:04.973Z,21.90
2022-09-12T09:26:43.031Z,18.30
2022-09-12T09:29:18.660Z,19.25
2022-09-12T09:31:49.617Z,24.17
2022-09-12T09:34:22.503Z,22.88
2022-09-12T09:36:52.652Z,19.30
2022-09-12T09:39:44.326Z,21.45
2022-09-12T09:42:23.707Z,21.65
2022-09-12T09:44:54.984Z,22.42
2022-09-12T09:47:23.355Z,20.38
2022-09-12T09:49:51.026Z,24.27
2022-09-12T09:52:25.490Z,20.00
2022-09-12T09:54:57.583Z,24.75
2022-09-12T09:57:41.522Z,23.55
2022-09-12T10:00:27.247Z,28.00
2022-09-12T10:03:15.015Z,22.20
2022-09-12T10:05:48.141Z,22.58
2022-09-12T10:08:22.269Z,19.90
2022-09-12T10:11:02.885Z,19.58
2022-09-12T10:13:36.571Z,22.38
2022-09-12T10:16:08.706Z,20.67
2022-09-12T10:18:43.852Z,20.35
2022-09-12T10:21:23.468Z,18.95
2022-09-12T10:24:00.111Z,20.98
2022-09-12T10:26:33.126Z,18.92
2022-09-12T10:29:11.814Z,16.73
2022-09-12T10:31:48.226Z,17.48
2022-09-12T10:34:32.412Z,19.50
2022-09-12T10:37:04.182Z,14.07
2022-09-12T10:39:32.728Z,14.15
2022-09-12T10:42:00.526Z,12.45
2022-09-12T10:44:30.756Z,12.88
2022-09-12T10:47:01.413Z,12.70
2022-09-12T10:49:31.379Z,13.38
2022-09-12T10:52:18.204Z,13.73
2022-09-12T10:54:46.367Z,11.23
2022-09-12T10:57:58.647Z,6.88
2022-09-12T11:00:30.521Z,8.45
2022-09-12T11:03:16.081Z,6.07
2022-09-12T11:05:55.270Z,6.80
2022-09-12T11:08:39.509Z,6.03
2022-09-12T11:11:23.681Z,7.50
2022-09-12T11:14:06.752Z,6.65
2022-09-12T11:16:43.152Z,7.18
2022-09-12T11:19:30.923Z,7.30
2022-09-12T11:22:13.168Z,6.28
2022-09-12T11:25:07.018Z,9.13
2022-09-12T11:27:46.659Z,7.63
2022-09-12T11:30:17.552Z,7.70
2022-09-12T11:33:08.478Z,10.05
2022-09-12T11:35:45.325Z,9.38
2022-09-12T11:38:29.950Z,7.05
2022-09-12T11:41:01.855Z,10.35
2022-09-12T11:43:40.728Z,8.65
2022-09-12T11:46:16.183Z,10.55
2022-09-12T11:48:49.734Z,7.40
2022-09-12T11:51:21.148Z,9.88
2022-09-12T11:54:01.707Z,8.00
2022-09-12T11:56:29.453Z,8.45
2022-09-12T11:59:04.226Z,6.95
2022-09-12T12:01:43.886Z,7.57
2022-09-12T12:04:16.453Z,10.35
2022-09-12T12:06:53.657Z,9.03
2022-09-12T12:09:21.602Z,8.80
2022-09-12T12:11:56.032Z,9.30
2022-09-12T12:14:26.198Z,9.63
2022-09-12T12:16:54.234Z,8.63
2022-09-12T12:19:36.667Z,6.78
2022-09-12T12:22:17.576Z,6.32
2022-09-12T12:25:08.113Z,6.13
2022-09-12T12:27:51.871Z,5.45
2022-09-12T12:31:03.025Z,7.07
2022-09-12T12:33:53.428Z,8.27
2022-09-12T12:36:38.419Z,6.07
2022-09-12T12:39:48.149Z,5.68
2022-09-12T12:43:02.812Z,4.45
2022-09-12T12:46:10.499Z,5.13
2022-09-12T12:49:09.458Z,4.35
2022-09-12T12:51:42.949Z,4.43
2022-09-12T12:54:48.737Z,4.00
2022-09-12T12:57:48.428Z,3.63
2022-09-12T13:00:33.119Z,5.57
2022-09-12T13:03:07.045Z,3.38
2022-09-12T13:05:42.735Z,5.28
2022-09-12T13:08:25.572Z,6.68
2022-09-12T13:10:57.914Z,3.92
2022-09-12T13:13:32.430Z,3.20
2022-09-12T13:16:00.174Z,3.50
2022-09-12T13:18:34.017Z,3.58
2022-09-12T13:21:11.043Z,2.90
2022-09-12T13:23:38.979Z,3.78
2022-09-12T13:26:12.424Z,3.83
2022-09-12T13:28:40.145Z,3.50
2022-09-12T13:31:19.117Z,3.60
2022-09-12T13:33:49.333Z,3.70
2022-09-12T13:36:38.104Z,3.78
2022-09-12T13:39:21.983Z,3.53
2022-09-12T13:42:43.334Z,3.20
2022-09-12T13:45:15.761Z,3.20
2022-09-12T13:47:45.191Z,2.95
2022-09-12T13:50:20.398Z,3.03
2022-09-12T13:52:53.224Z,3.10
2022-09-12T13:55:30.134Z,3.40
2022-09-12T13:58:00.677Z,3.78
2022-09-12T14:00:31.991Z,3.40
2022-09-12T14:03:17.594Z,3.10
2022-09-12T14:05:53.103Z,3.55
2022-09-12T14:08:24.017Z,3.63
2022-09-12T14:10:52.263Z,3.75
2022-09-12T14:13:23.400Z,4.28
2022-09-12T14:15:53.419Z,5.20
2022-09-12T14:18:27.170Z,4.20
2022-09-12T14:20:56.895Z,5.78
2022-09-12T14:23:30.241Z,5.63
2022-09-12T14:26:00.023Z,4.15
2022-09-12T14:28:30.217Z,3.70
2022-09-12T14:31:00.093Z,4.10
2022-09-12T14:33:27.841Z,4.10
2022-09-12T14:36:12.025Z,4.72
2022-09-12T14:38:46.023Z,3.95
2022-09-12T14:41:21.468Z,4.15
2022-09-12T14:43:54.071Z,4.50
2022-09-12T14:46:28.493Z,5.03
2022-09-12T14:48:58.921Z,4.30
2022-09-12T14:51:29.952Z,4.40
2022-09-12T14:53:59.503Z,3.90
2022-09-12T14:56:41.217Z,4.65
2022-09-12T14:59:27.525Z,3.80
2022-09-12T15:02:18.940Z,3.78
2022-09-12T15:04:48.273Z,3.83
2022-09-12T15:07:16.724Z,4.10
2022-09-12T15:09:47.453Z,5.95
2022-09-12T15:12:15.192Z,9.02
2022-09-12T15:14:42.832Z,7.15
2022-09-12T15:17:10.452Z,9.32
2022-09-12T15:19:38.104Z,7.50
2022-09-12T15:22:06.007Z,9.43
2022-09-12T15:24:33.671Z,6.75
2022-09-12T15:27:02.718Z,6.88
2022-09-12T15:29:30.426Z,6.65
2022-09-12T15:31:58.124Z,5.25
2022-09-12T15:34:25.843Z,4.85
2022-09-12T15:36:53.548Z,5.18
2022-09-12T15:39:21.210Z,5.78
2022-09-12T15:41:49.344Z,5.38
2022-09-12T15:44:20.084Z,4.30
2022-09-12T15:46:48.297Z,4.90
2022-09-12T15:49:15.980Z,4.55
2022-09-12T15:51:43.633Z,4.53
2022-09-12T15:54:13.877Z,5.80
2022-09-12T15:56:41.854Z,4.60
2022-09-12T15:59:09.499Z,4.10
2022-09-12T16:01:38.563Z,4.97
2022-09-12T16:04:23.726Z,4.65
2022-09-12T16:06:51.836Z,9.63
2022-09-12T16:09:19.653Z,4.57
2022-09-12T16:11:47.750Z,7.05
2022-09-12T16:14:16.167Z,4.72
2022-09-12T16:16:46.309Z,6.10
2022-09-12T16:19:13.971Z,4.32
2022-09-12T16:21:41.667Z,5.15
2022-09-12T16:24:09.436Z,6.07
2022-09-12T16:26:37.121Z,4.53
2022-09-12T16:29:05.173Z,5.30
2022-09-12T16:31:40.286Z,5.32
2022-09-12T16:34:09.404Z,5.80
2022-09-12T16:36:37.085Z,5.90
2022-09-12T16:39:05.345Z,5.75
2022-09-12T16:41:33.197Z,4.82
2022-09-12T16:44:00.829Z,5.68
2022-09-12T16:46:29.599Z,6.75
2022-09-12T16:48:59.255Z,6.35
2022-09-12T16:51:31.810Z,5.13
2022-09-12T16:53:59.689Z,6.03
2022-09-12T16:56:27.553Z,4.07
2022-09-12T16:58:55.588Z,3.97
2022-09-12T17:01:25.106Z,4.15
2022-09-12T17:03:54.445Z,5.72
2022-09-12T17:06:22.240Z,3.95
2022-09-12T17:08:52.819Z,3.63
2022-09-12T17:11:22.921Z,3.83
2022-09-12T17:14:07.568Z,6.88
2022-09-12T17:16:39.806Z,4.15
2022-09-12T17:19:13.099Z,5.03
2022-09-12T17:21:40.745Z,3.65
2022-09-12T17:24:09.859Z,3.58
2022-09-12T17:26:37.806Z,3.40
2022-09-12T17:29:05.668Z,3.60
2022-09-12T17:31:33.767Z,3.70
2022-09-12T17:34:06.724Z,3.55
2022-09-12T17:36:34.675Z,3.80
2022-09-12T17:39:03.635Z,4.22
2022-09-12T17:41:33.410Z,4.50
2022-09-12T17:44:02.485Z,3.80
2022-09-12T17:46:34.960Z,3.97
2022-09-12T17:49:04.569Z,4.22
2022-09-12T17:51:32.335Z,5.18
2022-09-12T17:54:02.134Z,5.03
2022-09-12T17:56:32.985Z,4.40
2022-09-12T17:59:01.559Z,23.42
2022-09-12T18:01:48.188Z,7.03
2022-09-12T18:04:16.255Z,4.72
2022-09-12T18:06:48.013Z,6.00
2022-09-12T18:09:17.772Z,6.68
2022-09-12T18:11:48.254Z,5.35
2022-09-12T18:14:17.247Z,4.20
2022-09-12T18:16:45.209Z,4.20
2022-09-12T18:19:13.300Z,5.45
2022-09-12T18:21:41.241Z,5.30
2022-09-12T18:24:10.528Z,6.20
2022-09-12T18:26:38.374Z,5.05
2022-09-12T18:29:08.104Z,6.97
2022-09-12T18:31:35.955Z,5.38
2022-09-12T18:34:05.893Z,4.88
2022-09-12T18:36:33.624Z,5.32
2022-09-12T18:39:01.260Z,5.35
2022-09-12T18:41:29.218Z,5.78
2022-09-12T18:43:58.513Z,5.35
2022-09-12T18:46:28.899Z,6.28
2022-09-12T18:48:57.654Z,6.72
2022-09-12T18:51:31.260Z,9.07
2022-09-12T18:54:00.959Z,5.68
2022-09-12T18:56:32.632Z,6.20
2022-09-12T18:59:01.761Z,6.00
2022-09-12T19:01:32.630Z,6.90
2022-09-12T19:04:00.986Z,6.75
2022-09-12T19:06:30.462Z,5.72
2022-09-12T19:09:01.692Z,6.00
2022-09-12T19:11:31.616Z,6.78
2022-09-12T19:13:59.285Z,6.88
2022-09-12T19:16:28.517Z,6.45
2022-09-12T19:18:58.500Z,5.80
2022-09-12T19:21:28.144Z,7.13
2022-09-12T19:23:57.996Z,7.18
2022-09-12T19:26:26.338Z,7.47
2022-09-12T19:28:55.171Z,10.75
2022-09-12T19:31:23.465Z,19.30
2022-09-12T19:33:52.088Z,11.23
2022-09-12T19:36:43.677Z,7.38
2022-09-12T19:39:11.335Z,6.30
2022-09-12T19:41:39.035Z,6.13
2022-09-12T19:44:06.724Z,7.13
2022-09-12T19:46:34.556Z,5.95
2022-09-12T19:49:02.347Z,6.20
2022-09-12T19:51:31.454Z,7.35
2022-09-12T19:53:59.188Z,6.70
2022-09-12T19:56:26.829Z,6.82
2022-09-12T19:58:56.714Z,8.02
2022-09-12T20:01:28.285Z,6.93
2022-09-12T20:03:56.410Z,6.65
2022-09-12T20:06:24.550Z,7.10
2022-09-12T20:08:53.604Z,6.85
2022-09-12T20:11:25.770Z,6.50
2022-09-12T20:13:54.384Z,6.60
2022-09-12T20:16:26.434Z,7.40
2022-09-12T20:18:56.072Z,7.15
2022-09-12T20:21:30.951Z,7.25
2022-09-12T20:24:03.169Z,7.50
2022-09-12T20:26:31.125Z,6.53
2022-09-12T20:28:58.778Z,6.55
2022-09-12T20:31:27.005Z,6.43
2022-09-12T20:34:14.366Z,9.18
2022-09-12T20:36:42.020Z,9.73
2022-09-12T20:39:14.848Z,9.18
2022-09-12T20:41:42.642Z,8.10
2022-09-12T20:44:10.340Z,7.18
2022-09-12T20:46:38.028Z,7.45
2022-09-12T20:49:05.839Z,7.63
2022-09-12T20:51:34.870Z,7.90
2022-09-12T20:54:04.600Z,7.40
2022-09-12T20:56:34.575Z,7.93
2022-09-12T20:59:02.871Z,8.00
2022-09-12T21:01:31.647Z,8.15
2022-09-12T21:04:00.340Z,9.15
2022-09-12T21:06:28.503Z,7.72
2022-09-12T21:09:00.484Z,6.93
2022-09-12T21:11:29.205Z,6.70
2022-09-12T21:13:57.235Z,6.90
2022-09-12T21:16:25.213Z,5.63
2022-09-12T21:18:57.655Z,7.53
2022-09-12T21:23:55.189Z,6.78
2022-09-12T21:26:24.407Z,5.90
2022-09-12T21:28:52.264Z,7.10
2022-09-12T21:31:19.983Z,4.90
2022-09-12T21:33:47.763Z,5.40
2022-09-12T21:36:15.470Z,6.40
2022-09-12T21:38:43.274Z,5.10
2022-09-12T21:41:12.805Z,6.30
2022-09-12T21:43:42.316Z,6.40
2022-09-12T21:46:10.536Z,5.20
2022-09-12T21:48:38.309Z,5.03
2022-09-12T21:51:06.534Z,5.55
2022-09-12T21:53:34.261Z,5.45
2022-09-12T21:56:02.651Z,5.85
2022-09-12T21:58:30.462Z,5.72
2022-09-12T22:00:59.724Z,5.28
2022-09-12T22:03:27.530Z,5.88
2022-09-12T22:05:58.217Z,6.82
2022-09-12T22:08:26.102Z,5.47
2022-09-12T22:10:53.783Z,6.75
2022-09-12T22:13:21.380Z,7.00
2022-09-12T22:15:51.988Z,6.40
2022-09-12T22:18:20.998Z,6.78
2022-09-12T22:20:48.607Z,5.93
2022-09-12T22:23:33.985Z,6.32
2022-09-12T22:26:02.746Z,7.68
2022-09-12T22:28:32.104Z,7.53
2022-09-12T22:30:59.799Z,8.23
2022-09-12T22:33:28.874Z,8.25
2022-09-12T22:35:56.482Z,8.50
2022-09-12T22:38:26.029Z,7.43
2022-09-12T22:40:53.880Z,7.15
2022-09-12T22:43:21.483Z,8.93
2022-09-12T22:45:49.129Z,6.57
2022-09-12T22:48:17.082Z,7.47
2022-09-12T22:50:46.109Z,9.98
2022-09-12T22:53:13.739Z,6.93
2022-09-12T22:55:41.365Z,11.25
2022-09-12T22:58:08.984Z,7.72
2022-09-12T23:00:36.711Z,8.75
2022-09-12T23:03:04.401Z,8.00
2022-09-12T23:05:32.311Z,9.95
2022-09-12T23:08:01.603Z,9.38
2022-09-12T23:10:29.264Z,10.70
2022-09-12T23:12:57.460Z,9.73
2022-09-12T23:15:25.103Z,12.10
2022-09-12T23:17:52.726Z,9.30
2022-09-12T23:20:20.350Z,9.52
2022-09-12T23:22:48.035Z,9.80
2022-09-12T23:25:17.701Z,10.07
2022-09-12T23:27:45.474Z,9.18
2022-09-12T23:30:13.251Z,9.82
2022-09-12T23:32:40.885Z,11.52
2022-09-12T23:35:08.867Z,9.25
2022-09-12T23:37:36.458Z,9.00
2022-09-12T23:40:04.565Z,10.43
2022-09-12T23:42:33.577Z,9.70
2022-09-12T23:45:01.186Z,25.80
2022-09-12T23:47:28.815Z,13.77
2022-09-12T23:49:56.399Z,11.10
2022-09-12T23:52:23.989Z,8.35
2022-09-12T23:54:51.665Z,7.10
2022-09-12T23:57:19.316Z,7.32
2022-09-12T23:59:48.275Z,7.30
